createdAt,value
2019-05-14T00:00:43.719Z,1030.98
2019-05-14T00:01:43.748Z,1031.04
2019-05-14T00:02:43.776Z,1030.98
2019-05-14T00:03:43.807Z,1031.03
2019-05-14T00:04:43.835Z,1031.06
2019-05-14T00:05:43.862Z,1031.02
2019-05-14T00:06:43.894Z,1031.05
2019-05-14T00:07:43.928Z,1031.00
2019-05-14T00:08:43.949Z,1031.08
2019-05-14T00:09:43.978Z,1031.04
2019-05-14T00:10:44.007Z,1031.10
2019-05-14T00:11:44.035Z,1031.13
2019-05-14T00:12:44.065Z,1031.07
2019-05-14T00:13:44.095Z,1031.09
2019-05-14T00:14:44.159Z,1031.06
2019-05-14T00:15:44.150Z,1031.05
2019-05-14T00:16:44.178Z,1031.05
2019-05-14T00:17:44.208Z,1031.13
2019-05-14T00:18:44.235Z,1031.08
2019-05-14T00:19:44.269Z,1031.04
2019-05-14T00:20:44.293Z,1031.01
2019-05-14T00:21:44.324Z,1031.01
2019-05-14T00:22:44.353Z,1031.05
2019-05-14T00:23:44.380Z,1031.02
2019-05-14T00:24:44.408Z,1031.04
2019-05-14T00:25:44.440Z,1031.06
2019-05-14T00:26:44.467Z,1031.00
2019-05-14T00:27:44.498Z,1031.01
2019-05-14T00:28:44.526Z,1030.99
2019-05-14T00:29:44.553Z,1030.90
2019-05-14T00:30:44.582Z,1030.97
2019-05-14T00:31:44.611Z,1030.92
2019-05-14T00:32:44.642Z,1030.92
2019-05-14T00:33:44.667Z,1030.87
2019-05-14T00:34:44.698Z,1030.88
2019-05-14T00:35:44.724Z,1030.85
2019-05-14T00:36:44.754Z,1030.84
2019-05-14T00:37:44.780Z,1030.86
2019-05-14T00:38:44.811Z,1030.87
2019-05-14T00:39:44.837Z,1030.87
2019-05-14T00:40:44.869Z,1030.95
2019-05-14T00:41:44.894Z,1030.89
2019-05-14T00:42:44.927Z,1030.87
2019-05-14T00:43:44.953Z,1030.84
2019-05-14T00:44:54.360Z,1030.82
2019-05-14T00:45:45.010Z,1030.81
2019-05-14T00:46:45.043Z,1030.82
2019-05-14T00:47:45.068Z,1030.81
2019-05-14T00:48:45.099Z,1030.82
2019-05-14T00:49:45.125Z,1030.81
2019-05-14T00:50:45.154Z,1030.80
2019-05-14T00:51:45.184Z,1030.79
2019-05-14T00:52:46.394Z,1030.84
2019-05-14T00:53:45.240Z,1030.84
2019-05-14T00:54:45.272Z,1030.77
2019-05-14T00:55:45.298Z,1030.79
2019-05-14T00:56:45.328Z,1030.82
2019-05-14T00:57:45.364Z,1030.82
2019-05-14T00:58:45.384Z,1030.79
2019-05-14T00:59:45.417Z,1030.81
2019-05-14T01:00:45.442Z,1030.76
2019-05-14T01:01:45.472Z,1030.75
2019-05-14T01:02:45.501Z,1030.78
2019-05-14T01:03:45.528Z,1030.75
2019-05-14T01:04:45.555Z,1030.79
2019-05-14T01:05:45.585Z,1030.75
2019-05-14T01:06:45.615Z,1030.76
2019-05-14T01:07:45.644Z,1030.82
2019-05-14T01:08:45.674Z,1030.80
2019-05-14T01:09:45.701Z,1030.77
2019-05-14T01:10:45.729Z,1030.81
2019-05-14T01:11:45.760Z,1030.78
2019-05-14T01:12:45.790Z,1030.80
2019-05-14T01:13:45.812Z,1030.83
2019-05-14T01:14:45.847Z,1030.78
2019-05-14T01:15:45.872Z,1030.80
2019-05-14T01:16:45.902Z,1030.73
2019-05-14T01:17:45.936Z,1030.77
2019-05-14T01:18:45.963Z,1030.76
2019-05-14T01:19:45.987Z,1030.75
2019-05-14T01:20:46.015Z,1030.74
2019-05-14T01:21:46.044Z,1030.71
2019-05-14T01:22:46.074Z,1030.71
2019-05-14T01:23:46.104Z,1030.76
2019-05-14T01:24:46.130Z,1030.75
2019-05-14T01:25:46.160Z,1030.74
2019-05-14T01:26:46.191Z,1030.71
2019-05-14T01:27:46.223Z,1030.71
2019-05-14T01:28:46.256Z,1030.69
2019-05-14T01:29:46.274Z,1030.70
2019-05-14T01:30:46.302Z,1030.69
2019-05-14T01:31:46.332Z,1030.72
2019-05-14T01:32:46.364Z,1030.70
2019-05-14T01:33:46.390Z,1030.67
2019-05-14T01:34:46.418Z,1030.72
2019-05-14T01:35:46.448Z,1030.72
2019-05-14T01:36:46.475Z,1030.69
2019-05-14T01:37:46.506Z,1030.73
2019-05-14T01:38:46.531Z,1030.70
2019-05-14T01:39:46.567Z,1030.68
2019-05-14T01:40:46.598Z,1030.71
2019-05-14T01:41:46.621Z,1030.71
2019-05-14T01:42:46.649Z,1030.72
2019-05-14T01:43:46.680Z,1030.73
2019-05-14T01:44:46.715Z,1030.75
2019-05-14T01:45:46.736Z,1030.76
2019-05-14T01:46:46.769Z,1030.76
2019-05-14T01:47:46.794Z,1030.72
2019-05-14T01:48:46.821Z,1030.78
2019-05-14T01:49:46.850Z,1030.74
2019-05-14T01:50:46.878Z,1030.74
2019-05-14T01:51:46.907Z,1030.73
2019-05-14T01:52:46.935Z,1030.70
2019-05-14T01:53:46.964Z,1030.72
2019-05-14T01:54:46.997Z,1030.68
2019-05-14T01:55:47.022Z,1030.64
2019-05-14T01:56:47.052Z,1030.69
2019-05-14T01:57:47.079Z,1030.69
2019-05-14T01:58:47.109Z,1030.68
2019-05-14T01:59:47.139Z,1030.68
2019-05-14T02:00:47.166Z,1030.64
2019-05-14T02:01:47.195Z,1030.69
2019-05-14T02:02:47.225Z,1030.67
2019-05-14T02:03:47.253Z,1030.64
2019-05-14T02:04:47.284Z,1030.65
2019-05-14T02:05:47.312Z,1030.63
2019-05-14T02:06:47.341Z,1030.65
2019-05-14T02:07:47.373Z,1030.68
2019-05-14T02:08:47.396Z,1030.64
2019-05-14T02:09:47.424Z,1030.63
2019-05-14T02:10:47.454Z,1030.59
2019-05-14T02:11:47.484Z,1030.60
2019-05-14T02:12:47.513Z,1030.58
2019-05-14T02:13:48.475Z,1030.56
2019-05-14T02:14:47.569Z,1030.55
2019-05-14T02:15:47.606Z,1030.51
2019-05-14T02:16:47.631Z,1030.56
2019-05-14T02:17:47.656Z,1030.54
2019-05-14T02:18:47.686Z,1030.53
2019-05-14T02:19:47.713Z,1030.60
2019-05-14T02:20:47.742Z,1030.60
2019-05-14T02:21:47.777Z,1030.56
2019-05-14T02:22:47.831Z,1030.58
2019-05-14T02:23:47.829Z,1030.58
2019-05-14T02:24:47.858Z,1030.59
2019-05-14T02:25:47.886Z,1030.55
2019-05-14T02:26:47.919Z,1030.56
2019-05-14T02:27:47.946Z,1030.54
2019-05-14T02:28:47.976Z,1030.53
2019-05-14T02:29:48.003Z,1030.57
2019-05-14T02:30:56.960Z,1030.54
2019-05-14T02:31:50.367Z,1030.57
2019-05-14T02:32:49.760Z,1030.60
2019-05-14T02:33:50.428Z,1030.61
2019-05-14T02:34:50.031Z,1030.63
2019-05-14T02:35:49.433Z,1030.67
2019-05-14T02:36:49.668Z,1030.66
2019-05-14T02:37:50.387Z,1030.71
2019-05-14T02:38:49.415Z,1030.69
2019-05-14T02:39:50.133Z,1030.70
2019-05-14T02:40:49.413Z,1030.73
2019-05-14T02:41:49.883Z,1030.67
2019-05-14T02:42:49.720Z,1030.72
2019-05-14T02:43:50.242Z,1030.73
2019-05-14T02:44:48.946Z,1030.71
2019-05-14T02:46:04.526Z,1030.67
2019-05-14T02:46:50.682Z,1030.69
2019-05-14T02:47:50.297Z,1030.66
2019-05-14T02:48:49.235Z,1030.63
2019-05-14T02:49:50.255Z,1030.63
2019-05-14T02:50:49.629Z,1030.63
2019-05-14T02:51:50.486Z,1030.65
2019-05-14T02:52:49.581Z,1030.62
2019-05-14T02:53:49.789Z,1030.66
2019-05-14T02:54:49.767Z,1030.62
2019-05-14T02:55:49.788Z,1030.62
2019-05-14T02:56:49.596Z,1030.66
2019-05-14T02:57:50.039Z,1030.66
2019-05-14T02:58:49.917Z,1030.64
2019-05-14T02:59:50.163Z,1030.66
2019-05-14T03:00:49.279Z,1030.61
2019-05-14T03:01:50.381Z,1030.68
2019-05-14T03:02:49.532Z,1030.64
2019-05-14T03:03:49.647Z,1030.65
2019-05-14T03:04:49.823Z,1030.67
2019-05-14T03:05:49.797Z,1030.70
2019-05-14T03:06:49.789Z,1030.72
2019-05-14T03:07:50.115Z,1030.75
2019-05-14T03:08:49.547Z,1030.72
2019-05-14T03:09:50.202Z,1030.72
2019-05-14T03:10:50.205Z,1030.73
2019-05-14T03:11:49.223Z,1030.73
2019-05-14T03:12:50.417Z,1030.76
2019-05-14T03:13:49.703Z,1030.75
2019-05-14T03:14:50.132Z,1030.71
2019-05-14T03:15:49.908Z,1030.71
2019-05-14T03:16:49.848Z,1030.70
2019-05-14T03:17:49.651Z,1030.71
2019-05-14T03:18:50.187Z,1030.63
2019-05-14T03:19:49.848Z,1030.64
2019-05-14T03:20:50.455Z,1030.67
2019-05-14T03:21:50.340Z,1030.60
2019-05-14T03:23:02.032Z,1030.63
2019-05-14T03:23:49.924Z,1030.60
2019-05-14T03:24:50.205Z,1030.60
2019-05-14T03:25:49.718Z,1030.57
2019-05-14T03:26:50.254Z,1030.57
2019-05-14T03:27:50.011Z,1030.60
2019-05-14T03:28:50.104Z,1030.58
2019-05-14T03:29:50.295Z,1030.61
2019-05-14T03:30:52.353Z,1030.58
2019-05-14T03:31:52.555Z,1030.58
2019-05-14T03:32:52.785Z,1030.60
2019-05-14T03:33:52.547Z,1030.57
2019-05-14T03:34:53.166Z,1030.58
2019-05-14T03:35:57.825Z,1030.55
2019-05-14T03:36:52.923Z,1030.56
2019-05-14T03:37:50.094Z,1030.60
2019-05-14T03:38:50.480Z,1030.59
2019-05-14T03:39:50.038Z,1030.61
2019-05-14T03:40:50.092Z,1030.61
2019-05-14T03:41:50.292Z,1030.66
2019-05-14T03:42:50.127Z,1030.67
2019-05-14T03:43:50.180Z,1030.67
2019-05-14T03:44:50.189Z,1030.69
2019-05-14T03:45:50.214Z,1030.73
2019-05-14T03:46:55.237Z,1030.69
2019-05-14T03:47:50.730Z,1030.70
2019-05-14T03:48:50.304Z,1030.74
2019-05-14T03:49:50.331Z,1030.70
2019-05-14T03:50:50.361Z,1030.70
2019-05-14T03:51:50.391Z,1030.75
2019-05-14T03:52:50.419Z,1030.76
2019-05-14T03:54:00.987Z,1030.80
2019-05-14T03:54:50.478Z,1030.79
2019-05-14T03:55:50.847Z,1030.85
2019-05-14T03:56:50.541Z,1030.87
2019-05-14T03:57:50.568Z,1030.88
2019-05-14T03:58:50.604Z,1030.83
2019-05-14T03:59:50.664Z,1030.89
2019-05-14T04:00:51.055Z,1030.86
2019-05-14T04:01:51.278Z,1030.89
2019-05-14T04:02:50.747Z,1030.94
2019-05-14T04:03:50.768Z,1030.93
2019-05-14T04:04:50.788Z,1030.96
2019-05-14T04:05:50.807Z,1030.97
2019-05-14T04:06:50.845Z,1031.01
2019-05-14T04:07:50.865Z,1030.97
2019-05-14T04:08:50.894Z,1030.98
2019-05-14T04:09:50.923Z,1030.97
2019-05-14T04:10:54.236Z,1031.01
2019-05-14T04:11:50.985Z,1031.00
2019-05-14T04:12:51.021Z,1031.00
2019-05-14T04:13:51.042Z,1030.97
2019-05-14T04:14:51.075Z,1030.99
2019-05-14T04:15:51.110Z,1031.07
2019-05-14T04:17:05.463Z,1031.05
2019-05-14T04:17:51.164Z,1031.04
2019-05-14T04:18:51.195Z,1030.99
2019-05-14T04:19:51.224Z,1030.98
2019-05-14T04:20:51.253Z,1030.96
2019-05-14T04:21:51.285Z,1030.94
2019-05-14T04:22:51.333Z,1030.92
2019-05-14T04:23:51.543Z,1030.95
2019-05-14T04:24:51.374Z,1030.93
2019-05-14T04:25:51.409Z,1030.96
2019-05-14T04:27:02.625Z,1030.97
2019-05-14T04:27:51.491Z,1031.01
2019-05-14T04:28:51.499Z,1031.02
2019-05-14T04:29:51.524Z,1031.02
2019-05-14T04:30:51.552Z,1031.06
2019-05-14T04:31:51.583Z,1031.11
2019-05-14T04:32:51.830Z,1031.02
2019-05-14T04:33:51.643Z,1031.03
2019-05-14T04:34:51.684Z,1031.06
2019-05-14T04:35:51.703Z,1031.06
2019-05-14T04:36:51.736Z,1031.02
2019-05-14T04:37:51.769Z,1031.08
2019-05-14T04:38:55.198Z,1031.10
2019-05-14T04:39:51.824Z,1031.09
2019-05-14T04:40:51.855Z,1031.05
2019-05-14T04:41:51.885Z,1031.10
2019-05-14T04:42:51.915Z,1031.16
2019-05-14T04:43:51.945Z,1031.08
2019-05-14T04:44:51.980Z,1031.08
2019-05-14T04:45:52.005Z,1031.13
2019-05-14T04:46:52.035Z,1031.15
2019-05-14T04:47:52.070Z,1031.13
2019-05-14T04:48:52.098Z,1031.12
2019-05-14T04:49:52.149Z,1031.08
2019-05-14T04:50:52.157Z,1031.13
2019-05-14T04:51:52.188Z,1031.17
2019-05-14T04:52:52.217Z,1031.15
2019-05-14T04:53:52.251Z,1031.16
2019-05-14T04:54:52.277Z,1031.19
2019-05-14T04:55:52.310Z,1031.19
2019-05-14T04:56:52.345Z,1031.11
2019-05-14T04:57:52.370Z,1031.21
2019-05-14T04:58:52.404Z,1031.17
2019-05-14T04:59:52.434Z,1031.21
2019-05-14T05:00:52.465Z,1031.20
2019-05-14T05:01:52.492Z,1031.15
2019-05-14T05:02:52.522Z,1031.15
2019-05-14T05:03:52.556Z,1031.15
2019-05-14T05:04:52.586Z,1031.13
2019-05-14T05:05:52.613Z,1031.18
2019-05-14T05:06:52.644Z,1031.05
2019-05-14T05:07:52.678Z,1031.11
2019-05-14T05:08:52.713Z,1031.07
2019-05-14T05:09:52.739Z,1031.14
2019-05-14T05:10:52.770Z,1031.17
2019-05-14T05:11:52.803Z,1031.17
2019-05-14T05:12:52.834Z,1031.12
2019-05-14T05:13:52.860Z,1031.18
2019-05-14T05:14:52.890Z,1031.13
2019-05-14T05:15:52.925Z,1031.15
2019-05-14T05:16:52.957Z,1031.17
2019-05-14T05:17:53.363Z,1031.20
2019-05-14T05:18:53.015Z,1031.15
2019-05-14T05:19:53.049Z,1031.16
2019-05-14T05:20:53.078Z,1031.11
2019-05-14T05:21:53.108Z,1031.14
2019-05-14T05:22:53.140Z,1031.14
2019-05-14T05:23:53.170Z,1031.11
2019-05-14T05:24:53.254Z,1031.13
2019-05-14T05:25:53.237Z,1031.22
2019-05-14T05:26:53.266Z,1031.16
2019-05-14T05:27:56.371Z,1031.20
2019-05-14T05:29:03.759Z,1031.24
2019-05-14T05:29:53.361Z,1031.23
2019-05-14T05:30:53.389Z,1031.25
2019-05-14T05:31:53.422Z,1031.23
2019-05-14T05:32:53.455Z,1031.19
2019-05-14T05:33:53.487Z,1031.18
2019-05-14T05:34:53.519Z,1031.17
2019-05-14T05:35:53.548Z,1031.20
2019-05-14T05:36:53.584Z,1031.18
2019-05-14T05:37:53.612Z,1031.13
2019-05-14T05:38:53.644Z,1031.18
2019-05-14T05:39:53.677Z,1031.17
2019-05-14T05:40:56.691Z,1031.15
2019-05-14T05:41:53.740Z,1031.19
2019-05-14T05:42:53.773Z,1031.19
2019-05-14T05:43:53.807Z,1031.21
2019-05-14T05:44:53.841Z,1031.21
2019-05-14T05:45:53.869Z,1031.24
2019-05-14T05:46:53.904Z,1031.23
2019-05-14T05:47:58.205Z,1031.26
2019-05-14T05:48:53.968Z,1031.29
2019-05-14T05:49:54.002Z,1031.26
2019-05-14T05:50:54.032Z,1031.27
2019-05-14T05:51:54.067Z,1031.21
2019-05-14T05:52:54.104Z,1031.21
2019-05-14T05:53:54.132Z,1031.21
2019-05-14T05:54:54.165Z,1031.22
2019-05-14T05:55:54.197Z,1031.18
2019-05-14T05:56:54.230Z,1031.17
2019-05-14T05:57:54.261Z,1031.21
2019-05-14T05:58:54.295Z,1031.17
2019-05-14T05:59:54.327Z,1031.19
2019-05-14T06:00:54.374Z,1031.17
2019-05-14T06:01:54.424Z,1031.16
2019-05-14T06:02:54.425Z,1031.18
2019-05-14T06:03:54.459Z,1031.22
2019-05-14T06:04:54.494Z,1031.19
2019-05-14T06:05:54.529Z,1031.15
2019-05-14T06:06:54.561Z,1031.13
2019-05-14T06:07:54.589Z,1031.15
2019-05-14T06:08:54.625Z,1031.21
2019-05-14T06:09:54.657Z,1031.25
2019-05-14T06:10:54.694Z,1031.29
2019-05-14T06:11:54.724Z,1031.30
2019-05-14T06:12:54.760Z,1031.37
2019-05-14T06:13:54.790Z,1031.25
2019-05-14T06:14:54.828Z,1031.17
2019-05-14T06:15:54.859Z,1031.16
2019-05-14T06:16:54.896Z,1031.22
2019-05-14T06:18:09.324Z,1031.24
2019-05-14T06:18:54.968Z,1031.18
2019-05-14T06:19:54.996Z,1031.28
2019-05-14T06:20:55.029Z,1031.37
2019-05-14T06:21:55.065Z,1031.35
2019-05-14T06:22:55.099Z,1031.42
2019-05-14T06:23:55.130Z,1031.51
2019-05-14T06:24:55.169Z,1031.41
2019-05-14T06:25:55.202Z,1031.45
2019-05-14T06:26:55.237Z,1031.47
2019-05-14T06:27:55.269Z,1031.46
2019-05-14T06:28:55.305Z,1031.36
2019-05-14T06:29:55.343Z,1031.34
2019-05-14T06:30:55.379Z,1031.41
2019-05-14T06:31:55.426Z,1031.38
2019-05-14T06:32:55.449Z,1031.35
2019-05-14T06:33:55.486Z,1031.37
2019-05-14T06:34:55.529Z,1031.33
2019-05-14T06:35:55.561Z,1031.43
2019-05-14T06:36:55.592Z,1031.45
2019-05-14T06:37:55.627Z,1031.41
2019-05-14T06:38:55.663Z,1031.42
2019-05-14T06:39:55.700Z,1031.43
2019-05-14T06:40:55.736Z,1031.52
2019-05-14T06:41:58.351Z,1031.46
2019-05-14T06:42:55.808Z,1031.44
2019-05-14T06:43:55.852Z,1031.47
2019-05-14T06:44:58.428Z,1031.51
2019-05-14T06:45:58.336Z,1031.50
2019-05-14T06:46:55.952Z,1031.46
2019-05-14T06:47:55.987Z,1031.52
2019-05-14T06:48:56.025Z,1031.52
2019-05-14T06:49:56.063Z,1031.54
2019-05-14T06:50:58.228Z,1031.55
2019-05-14T06:51:59.031Z,1031.52
2019-05-14T06:52:58.109Z,1031.49
2019-05-14T06:53:58.616Z,1031.66
2019-05-14T06:54:58.288Z,1031.59
2019-05-14T06:55:58.560Z,1031.57
2019-05-14T06:56:58.263Z,1031.63
2019-05-14T06:57:58.379Z,1031.67
2019-05-14T06:58:58.499Z,1031.72
2019-05-14T06:59:58.748Z,1031.76
2019-05-14T07:00:58.679Z,1031.72
2019-05-14T07:01:57.994Z,1031.69
2019-05-14T07:02:58.319Z,1031.69
2019-05-14T07:03:58.073Z,1031.72
2019-05-14T07:04:58.812Z,1031.67
2019-05-14T07:05:56.655Z,1031.73
2019-05-14T07:06:58.953Z,1031.69
2019-05-14T07:07:59.538Z,1031.73
2019-05-14T07:08:58.827Z,1031.72
2019-05-14T07:09:58.199Z,1031.72
2019-05-14T07:10:59.038Z,1031.85
2019-05-14T07:11:58.483Z,1031.83
2019-05-14T07:12:59.165Z,1031.74
2019-05-14T07:13:58.084Z,1031.78
2019-05-14T07:14:58.517Z,1031.77
2019-05-14T07:15:58.451Z,1031.77
2019-05-14T07:16:58.921Z,1031.78
2019-05-14T07:17:58.431Z,1031.83
2019-05-14T07:18:59.073Z,1031.85
2019-05-14T07:19:58.180Z,1031.93
2019-05-14T07:20:58.832Z,1031.79
2019-05-14T07:21:58.271Z,1031.91
2019-05-14T07:22:58.645Z,1031.85
2019-05-14T07:23:59.342Z,1031.80
2019-05-14T07:24:58.753Z,1031.82
2019-05-14T07:25:58.912Z,1031.86
2019-05-14T07:26:58.594Z,1031.83
2019-05-14T07:27:58.316Z,1031.85
2019-05-14T07:28:59.023Z,1031.79
2019-05-14T07:29:58.355Z,1031.86
2019-05-14T07:30:59.265Z,1031.83
2019-05-14T07:31:58.249Z,1031.93
2019-05-14T07:32:58.796Z,1031.89
2019-05-14T07:33:58.260Z,1031.89
2019-05-14T07:34:59.611Z,1031.89
2019-05-14T07:35:59.379Z,1031.90
2019-05-14T07:36:58.699Z,1031.82
2019-05-14T07:37:59.103Z,1031.85
2019-05-14T07:39:00.116Z,1031.88
2019-05-14T07:39:58.132Z,1031.96
2019-05-14T07:40:58.695Z,1031.97
2019-05-14T07:41:59.004Z,1031.97
2019-05-14T07:42:58.395Z,1031.97
2019-05-14T07:43:58.691Z,1032.06
2019-05-14T07:44:58.884Z,1032.00
2019-05-14T07:45:58.433Z,1032.00
2019-05-14T07:46:58.999Z,1032.10
2019-05-14T07:47:58.420Z,1032.07
2019-05-14T07:49:08.108Z,1032.10
2019-05-14T07:49:58.412Z,1032.13
2019-05-14T07:51:00.016Z,1032.08
2019-05-14T07:51:58.838Z,1032.10
2019-05-14T07:52:58.827Z,1032.12
2019-05-14T07:53:58.586Z,1032.14
2019-05-14T07:54:58.811Z,1031.92
2019-05-14T07:55:59.145Z,1032.15
2019-05-14T07:56:59.170Z,1032.22
2019-05-14T07:57:58.805Z,1032.04
2019-05-14T07:59:02.079Z,1032.08
2019-05-14T07:59:59.037Z,1032.17
2019-05-14T08:00:58.883Z,1032.17
2019-05-14T08:01:58.921Z,1032.21
2019-05-14T08:02:58.963Z,1032.13
2019-05-14T08:04:00.186Z,1032.08
2019-05-14T08:04:59.054Z,1032.05
2019-05-14T08:05:59.093Z,1032.06
2019-05-14T08:06:59.135Z,1032.11
2019-05-14T08:07:59.176Z,1032.06
2019-05-14T08:08:59.385Z,1032.05
2019-05-14T08:09:59.265Z,1031.98
2019-05-14T08:10:59.409Z,1031.97
2019-05-14T08:11:59.355Z,1031.95
2019-05-14T08:12:59.394Z,1031.90
2019-05-14T08:13:59.438Z,1031.92
2019-05-14T08:15:14.095Z,1032.01
2019-05-14T08:15:59.535Z,1031.97
2019-05-14T08:16:59.713Z,1032.02
2019-05-14T08:17:59.623Z,1031.93
2019-05-14T08:19:00.179Z,1031.90
2019-05-14T08:19:59.712Z,1031.90
2019-05-14T08:20:59.766Z,1031.88
2019-05-14T08:21:59.804Z,1031.84
2019-05-14T08:22:59.846Z,1031.82
2019-05-14T08:23:59.893Z,1031.81
2019-05-14T08:24:59.934Z,1031.82
2019-05-14T08:26:03.658Z,1031.88
2019-05-14T08:27:00.015Z,1031.86
2019-05-14T08:28:00.063Z,1031.87
2019-05-14T08:29:00.103Z,1031.81
2019-05-14T08:30:00.149Z,1031.92
2019-05-14T08:31:00.191Z,1031.98
2019-05-14T08:32:00.241Z,1031.93
2019-05-14T08:33:00.280Z,1031.94
2019-05-14T08:34:04.893Z,1031.95
2019-05-14T08:35:00.370Z,1031.91
2019-05-14T08:36:00.415Z,1031.91
2019-05-14T08:37:04.000Z,1031.89
2019-05-14T08:38:07.809Z,1032.00
2019-05-14T08:39:00.546Z,1031.95
2019-05-14T08:40:00.594Z,1031.93
2019-05-14T08:41:00.637Z,1032.00
2019-05-14T08:42:04.004Z,1031.92
2019-05-14T08:43:00.721Z,1031.92
2019-05-14T08:44:00.765Z,1031.93
2019-05-14T08:45:04.744Z,1031.92
2019-05-14T08:46:00.854Z,1031.86
2019-05-14T08:47:00.894Z,1031.87
2019-05-14T08:48:00.940Z,1031.80
2019-05-14T08:49:00.985Z,1031.95
2019-05-14T08:50:01.023Z,1032.00
2019-05-14T08:51:01.074Z,1032.02
2019-05-14T08:52:01.111Z,1031.98
2019-05-14T08:53:01.154Z,1032.05
2019-05-14T08:54:01.199Z,1032.01
2019-05-14T08:55:10.886Z,1032.05
2019-05-14T08:56:01.285Z,1032.02
2019-05-14T08:57:01.327Z,1031.99
2019-05-14T08:58:01.485Z,1031.99
2019-05-14T08:59:01.415Z,1031.97
2019-05-14T09:00:01.457Z,1032.07
2019-05-14T09:01:01.504Z,1032.02
2019-05-14T09:02:06.306Z,1032.08
2019-05-14T09:03:03.273Z,1032.14
2019-05-14T09:04:01.630Z,1032.04
2019-05-14T09:05:04.611Z,1032.13
2019-05-14T09:06:01.716Z,1032.11
2019-05-14T09:07:01.757Z,1032.13
2019-05-14T09:08:01.802Z,1032.16
2019-05-14T09:09:01.843Z,1032.14
2019-05-14T09:10:01.903Z,1032.13
2019-05-14T09:11:01.932Z,1032.17
2019-05-14T09:12:02.000Z,1032.09
2019-05-14T09:13:02.773Z,1032.19
2019-05-14T09:14:02.065Z,1032.07
2019-05-14T09:15:02.146Z,1032.13
2019-05-14T09:16:02.149Z,1032.13
2019-05-14T09:17:02.194Z,1032.13
2019-05-14T09:18:03.609Z,1032.10
2019-05-14T09:19:02.286Z,1032.13
2019-05-14T09:20:07.033Z,1032.12
2019-05-14T09:21:02.371Z,1032.16
2019-05-14T09:22:02.425Z,1032.10
2019-05-14T09:23:02.459Z,1032.19
2019-05-14T09:24:02.508Z,1032.12
2019-05-14T09:25:02.552Z,1032.16
2019-05-14T09:26:02.597Z,1032.15
2019-05-14T09:27:05.430Z,1032.16
2019-05-14T09:28:02.686Z,1032.06
2019-05-14T09:29:18.166Z,1032.06
2019-05-14T09:30:02.773Z,1032.07
2019-05-14T09:31:02.818Z,1032.11
2019-05-14T09:32:02.862Z,1032.03
2019-05-14T09:33:02.909Z,1032.08
2019-05-14T09:34:02.966Z,1032.07
2019-05-14T09:35:03.015Z,1031.97
2019-05-14T09:36:17.546Z,1032.06
2019-05-14T09:37:03.104Z,1032.01
2019-05-14T09:38:03.139Z,1032.02
2019-05-14T09:39:03.187Z,1031.97
2019-05-14T09:40:03.230Z,1031.99
2019-05-14T09:41:11.159Z,1031.97
2019-05-14T09:42:03.320Z,1032.04
2019-05-14T09:43:03.367Z,1031.95
2019-05-14T09:44:03.415Z,1032.03
2019-05-14T09:45:03.465Z,1032.01
2019-05-14T09:46:03.505Z,1031.96
2019-05-14T09:47:03.551Z,1032.03
2019-05-14T09:48:03.602Z,1031.96
2019-05-14T09:49:03.650Z,1032.00
2019-05-14T09:50:16.447Z,1031.96
2019-05-14T09:51:03.735Z,1032.02
2019-05-14T09:52:03.782Z,1031.99
2019-05-14T09:53:03.830Z,1032.03
2019-05-14T09:54:03.874Z,1032.05
2019-05-14T09:55:03.924Z,1031.97
2019-05-14T09:56:03.966Z,1031.91
2019-05-14T09:57:04.013Z,1031.90
2019-05-14T09:58:04.081Z,1031.90
2019-05-14T09:59:04.108Z,1031.92
2019-05-14T10:00:04.150Z,1031.92
2019-05-14T10:01:04.198Z,1031.91
2019-05-14T10:02:04.243Z,1031.89
2019-05-14T10:03:04.291Z,1031.93
2019-05-14T10:04:04.342Z,1031.96
2019-05-14T10:05:04.381Z,1031.94
2019-05-14T10:06:04.427Z,1031.94
2019-05-14T10:07:04.488Z,1031.93
2019-05-14T10:08:04.520Z,1031.94
2019-05-14T10:09:04.570Z,1031.91
2019-05-14T10:10:04.612Z,1031.95
2019-05-14T10:11:04.666Z,1031.94
2019-05-14T10:12:04.707Z,1031.96
2019-05-14T10:13:04.753Z,1031.99
2019-05-14T10:14:04.800Z,1032.00
2019-05-14T10:15:04.852Z,1031.98
2019-05-14T10:16:04.890Z,1031.98
2019-05-14T10:17:04.939Z,1031.94
2019-05-14T10:18:04.993Z,1031.94
2019-05-14T10:19:05.029Z,1031.90
2019-05-14T10:20:05.075Z,1031.90
2019-05-14T10:21:05.121Z,1031.87
2019-05-14T10:22:05.167Z,1031.94
2019-05-14T10:23:05.212Z,1031.93
2019-05-14T10:24:05.267Z,1031.88
2019-05-14T10:25:05.311Z,1031.93
2019-05-14T10:26:05.359Z,1031.98
2019-05-14T10:27:05.396Z,1031.93
2019-05-14T10:28:05.443Z,1031.91
2019-05-14T10:29:05.488Z,1031.89
2019-05-14T10:30:05.536Z,1031.91
2019-05-14T10:31:05.587Z,1031.88
2019-05-14T10:32:05.625Z,1031.87
2019-05-14T10:33:10.568Z,1031.84
2019-05-14T10:34:08.238Z,1031.84
2019-05-14T10:35:08.399Z,1031.75
2019-05-14T10:36:05.810Z,1031.80
2019-05-14T10:37:08.401Z,1031.79
2019-05-14T10:38:08.585Z,1031.84
2019-05-14T10:39:05.947Z,1031.80
2019-05-14T10:40:05.990Z,1031.84
2019-05-14T10:41:08.799Z,1031.76
2019-05-14T10:42:08.315Z,1031.79
2019-05-14T10:43:08.875Z,1031.80
2019-05-14T10:44:09.055Z,1031.86
2019-05-14T10:45:10.075Z,1031.85
2019-05-14T10:46:08.872Z,1031.86
2019-05-14T10:47:08.972Z,1031.84
2019-05-14T10:48:06.352Z,1031.86
2019-05-14T10:49:17.455Z,1031.80
2019-05-14T10:50:13.308Z,1031.79
2019-05-14T10:51:06.489Z,1031.83
2019-05-14T10:52:08.233Z,1031.83
2019-05-14T10:53:09.008Z,1031.86
2019-05-14T10:54:21.636Z,1031.84
2019-05-14T10:55:08.055Z,1031.86
2019-05-14T10:56:06.717Z,1031.82
2019-05-14T10:57:09.375Z,1031.90
2019-05-14T10:58:08.967Z,1031.89
2019-05-14T10:59:09.318Z,1031.91
2019-05-14T11:00:08.854Z,1031.92
2019-05-14T11:01:11.303Z,1031.93
2019-05-14T11:02:11.567Z,1031.88
2019-05-14T11:03:07.045Z,1031.88
2019-05-14T11:04:07.092Z,1031.87
2019-05-14T11:05:07.133Z,1031.88
2019-05-14T11:06:11.365Z,1031.80
2019-05-14T11:07:07.236Z,1031.79
2019-05-14T11:08:11.668Z,1031.86
2019-05-14T11:09:09.032Z,1031.87
2019-05-14T11:10:09.185Z,1031.82
2019-05-14T11:11:10.261Z,1031.82
2019-05-14T11:12:08.991Z,1031.78
2019-05-14T11:13:08.933Z,1031.75
2019-05-14T11:14:08.809Z,1031.76
2019-05-14T11:15:07.602Z,1031.80
2019-05-14T11:16:08.639Z,1031.77
2019-05-14T11:17:11.870Z,1031.78
2019-05-14T11:18:08.630Z,1031.84
2019-05-14T11:19:09.536Z,1031.78
2019-05-14T11:20:08.140Z,1031.79
2019-05-14T11:21:21.594Z,1031.89
2019-05-14T11:22:08.402Z,1031.84
2019-05-14T11:23:08.994Z,1031.88
2019-05-14T11:24:09.436Z,1031.87
2019-05-14T11:25:09.140Z,1031.88
2019-05-14T11:26:09.225Z,1031.90
2019-05-14T11:27:08.165Z,1031.88
2019-05-14T11:28:08.205Z,1031.88
2019-05-14T11:29:08.250Z,1031.90
2019-05-14T11:30:09.052Z,1031.94
2019-05-14T11:31:09.237Z,1031.83
2019-05-14T11:32:09.770Z,1031.89
2019-05-14T11:33:09.115Z,1031.88
2019-05-14T11:34:08.480Z,1031.83
2019-05-14T11:35:12.968Z,1031.86
2019-05-14T11:36:09.394Z,1031.85
2019-05-14T11:37:08.731Z,1031.87
2019-05-14T11:38:27.961Z,1031.86
2019-05-14T11:39:09.358Z,1031.91
2019-05-14T11:40:08.828Z,1031.86
2019-05-14T11:41:09.666Z,1031.84
2019-05-14T11:42:08.852Z,1031.87
2019-05-14T11:43:08.915Z,1031.90
2019-05-14T11:44:09.265Z,1031.88
2019-05-14T11:45:09.123Z,1031.89
2019-05-14T11:46:09.036Z,1031.91
2019-05-14T11:47:09.310Z,1031.91
2019-05-14T11:48:09.133Z,1031.92
2019-05-14T11:49:09.178Z,1031.89
2019-05-14T11:50:10.068Z,1031.93
2019-05-14T11:51:09.340Z,1031.93
2019-05-14T11:52:11.792Z,1031.95
2019-05-14T11:53:09.364Z,1031.97
2019-05-14T11:54:09.649Z,1031.95
2019-05-14T11:55:09.457Z,1031.97
2019-05-14T11:56:09.504Z,1031.96
2019-05-14T11:57:11.548Z,1031.95
2019-05-14T11:58:09.592Z,1031.98
2019-05-14T11:59:09.644Z,1031.99
2019-05-14T12:00:09.687Z,1031.97
2019-05-14T12:01:09.736Z,1031.98
2019-05-14T12:02:09.831Z,1031.96
2019-05-14T12:03:09.822Z,1032.02
2019-05-14T12:04:09.867Z,1032.00
2019-05-14T12:05:09.917Z,1032.04
2019-05-14T12:06:10.137Z,1032.14